sensor_id;sensor_type;location;lat;lon;timestamp;temperature;humidity
4356;DHT22;64374;51.482;7.408;2023-04-01T00:01:23;12.00;99.90
4356;DHT22;64374;51.482;7.408;2023-04-01T00:03:52;12.20;99.90
4356;DHT22;64374;51.482;7.408;2023-04-01T00:06:23;12.00;99.90
4356;DHT22;64374;51.482;7.408;2023-04-01T00:08:51;11.90;99.90
4356;DHT22;64374;51.482;7.408;2023-04-01T00:11:21;12.00;99.90
4356;DHT22;64374;51.482;7.408;2023-04-01T00:13:51;11.90;99.90
4356;DHT22;64374;51.482;7.408;2023-04-01T00:16:20;11.90;99.90
4356;DHT22;64374;51.482;7.408;2023-04-01T00:18:50;12.10;99.90
4356;DHT22;64374;51.482;7.408;2023-04-01T00:21:20;11.90;99.90
4356;DHT22;64374;51.482;7.408;2023-04-01T00:23:48;11.50;99.90
4356;DHT22;64374;51.482;7.408;2023-04-01T00:26:17;11.70;99.90
4356;DHT22;64374;51.482;7.408;2023-04-01T00:28:48;11.80;99.90
4356;DHT22;64374;51.482;7.408;2023-04-01T00:31:18;11.80;99.90
4356;DHT22;64374;51.482;7.408;2023-04-01T00:33:47;11.80;99.90
4356;DHT22;64374;51.482;7.408;2023-04-01T00:36:17;11.50;99.90
4356;DHT22;64374;51.482;7.408;2023-04-01T00:38:46;11.70;99.90
4356;DHT22;64374;51.482;7.408;2023-04-01T00:41:16;11.70;99.90
4356;DHT22;64374;51.482;7.408;2023-04-01T00:43:47;12.00;99.90
4356;DHT22;64374;51.482;7.408;2023-04-01T00:46:18;11.90;99.90
4356;DHT22;64374;51.482;7.408;2023-04-01T00:48:49;11.70;99.90
4356;DHT22;64374;51.482;7.408;2023-04-01T00:51:23;11.50;99.90
4356;DHT22;64374;51.482;7.408;2023-04-01T00:53:55;11.60;99.90
4356;DHT22;64374;51.482;7.408;2023-04-01T00:56:49;11.70;99.90
4356;DHT22;64374;51.482;7.408;2023-04-01T00:59:25;11.50;99.90
4356;DHT22;64374;51.482;7.408;2023-04-01T01:01:56;11.50;99.90
4356;DHT22;64374;51.482;7.408;2023-04-01T01:04:26;11.50;99.90
4356;DHT22;64374;51.482;7.408;2023-04-01T01:07:07;11.40;99.90
4356;DHT22;64374;51.482;7.408;2023-04-01T01:09:46;11.40;99.90
4356;DHT22;64374;51.482;7.408;2023-04-01T01:12:21;11.50;99.90
4356;DHT22;64374;51.482;7.408;2023-04-01T01:15:03;11.50;99.90
4356;DHT22;64374;51.482;7.408;2023-04-01T01:17:44;11.50;99.90
4356;DHT22;64374;51.482;7.408;2023-04-01T01:20:29;11.70;99.90
4356;DHT22;64374;51.482;7.408;2023-04-01T01:23:23;11.50;99.90
4356;DHT22;64374;51.482;7.408;2023-04-01T01:26:09;11.50;99.90
4356;DHT22;64374;51.482;7.408;2023-04-01T01:28:47;11.60;99.90
4356;DHT22;64374;51.482;7.408;2023-04-01T01:31:25;11.50;99.90
4356;DHT22;64374;51.482;7.408;2023-04-01T01:34:09;11.70;99.90
4356;DHT22;64374;51.482;7.408;2023-04-01T01:36:48;11.70;99.90
4356;DHT22;64374;51.482;7.408;2023-04-01T01:39:18;11.80;99.90
4356;DHT22;64374;51.482;7.408;2023-04-01T01:41:49;11.50;99.90
4356;DHT22;64374;51.482;7.408;2023-04-01T01:44:18;11.60;99.90
4356;DHT22;64374;51.482;7.408;2023-04-01T01:46:47;11.60;99.90
4356;DHT22;64374;51.482;7.408;2023-04-01T01:49:18;11.50;99.90
4356;DHT22;64374;51.482;7.408;2023-04-01T01:51:49;11.50;99.90
4356;DHT22;64374;51.482;7.408;2023-04-01T01:54:18;11.60;99.90
4356;DHT22;64374;51.482;7.408;2023-04-01T01:56:48;11.60;99.90
4356;DHT22;64374;51.482;7.408;2023-04-01T01:59:20;11.60;99.90
4356;DHT22;64374;51.482;7.408;2023-04-01T02:01:52;11.60;99.90
4356;DHT22;64374;51.482;7.408;2023-04-01T02:04:23;11.30;99.90
4356;DHT22;64374;51.482;7.408;2023-04-01T02:06:57;11.40;99.90
4356;DHT22;64374;51.482;7.408;2023-04-01T02:09:27;11.20;99.90
4356;DHT22;64374;51.482;7.408;2023-04-01T02:11:58;11.30;99.90
4356;DHT22;64374;51.482;7.408;2023-04-01T02:14:37;11.50;99.90
4356;DHT22;64374;51.482;7.408;2023-04-01T02:17:10;11.40;99.90
4356;DHT22;64374;51.482;7.408;2023-04-01T02:19:46;11.00;99.90
4356;DHT22;64374;51.482;7.408;2023-04-01T02:22:20;11.40;99.90
4356;DHT22;64374;51.482;7.408;2023-04-01T02:24:51;11.40;99.90
4356;DHT22;64374;51.482;7.408;2023-04-01T02:27:21;11.60;99.90
4356;DHT22;64374;51.482;7.408;2023-04-01T02:29:50;11.60;99.90
4356;DHT22;64374;51.482;7.408;2023-04-01T02:32:20;11.60;99.90
4356;DHT22;64374;51.482;7.408;2023-04-01T02:34:49;11.70;99.90
4356;DHT22;64374;51.482;7.408;2023-04-01T02:37:20;11.60;99.90
4356;DHT22;64374;51.482;7.408;2023-04-01T02:39:48;11.80;99.90
4356;DHT22;64374;51.482;7.408;2023-04-01T02:42:17;12.00;99.90
4356;DHT22;64374;51.482;7.408;2023-04-01T02:44:45;11.80;99.90
4356;DHT22;64374;51.482;7.408;2023-04-01T02:47:14;11.80;99.90
4356;DHT22;64374;51.482;7.408;2023-04-01T02:49:42;11.60;99.90
4356;DHT22;64374;51.482;7.408;2023-04-01T02:52:11;11.40;99.90
4356;DHT22;64374;51.482;7.408;2023-04-01T02:54:40;11.50;99.90
4356;DHT22;64374;51.482;7.408;2023-04-01T02:57:09;11.70;99.90
4356;DHT22;64374;51.482;7.408;2023-04-01T02:59:37;11.70;99.90
4356;DHT22;64374;51.482;7.408;2023-04-01T03:02:06;11.60;99.90
4356;DHT22;64374;51.482;7.408;2023-04-01T03:04:34;11.40;99.90
4356;DHT22;64374;51.482;7.408;2023-04-01T03:07:03;11.30;99.90
4356;DHT22;64374;51.482;7.408;2023-04-01T03:09:32;11.60;99.90
4356;DHT22;64374;51.482;7.408;2023-04-01T03:12:05;11.50;99.90
4356;DHT22;64374;51.482;7.408;2023-04-01T03:14:46;11.40;99.90
4356;DHT22;64374;51.482;7.408;2023-04-01T03:17:14;11.60;99.90
4356;DHT22;64374;51.482;7.408;2023-04-01T03:19:44;11.60;99.90
4356;DHT22;64374;51.482;7.408;2023-04-01T03:22:13;11.60;99.90
4356;DHT22;64374;51.482;7.408;2023-04-01T03:24:42;11.80;99.90
4356;DHT22;64374;51.482;7.408;2023-04-01T03:27:13;11.60;99.90
4356;DHT22;64374;51.482;7.408;2023-04-01T03:29:41;11.40;99.90
4356;DHT22;64374;51.482;7.408;2023-04-01T03:32:13;11.50;99.90
4356;DHT22;64374;51.482;7.408;2023-04-01T03:34:42;11.30;99.90
4356;DHT22;64374;51.482;7.408;2023-04-01T03:37:10;11.50;99.90
4356;DHT22;64374;51.482;7.408;2023-04-01T03:39:39;11.20;99.90
4356;DHT22;64374;51.482;7.408;2023-04-01T03:42:09;11.20;99.90
4356;DHT22;64374;51.482;7.408;2023-04-01T03:44:39;11.40;99.90
4356;DHT22;64374;51.482;7.408;2023-04-01T03:47:10;11.50;99.90
4356;DHT22;64374;51.482;7.408;2023-04-01T03:49:38;11.40;99.90
4356;DHT22;64374;51.482;7.408;2023-04-01T03:52:10;11.50;99.90
4356;DHT22;64374;51.482;7.408;2023-04-01T03:54:41;11.50;99.90
4356;DHT22;64374;51.482;7.408;2023-04-01T03:57:09;11.50;99.90
4356;DHT22;64374;51.482;7.408;2023-04-01T03:59:39;11.60;99.90
4356;DHT22;64374;51.482;7.408;2023-04-01T04:02:08;11.60;99.90
4356;DHT22;64374;51.482;7.408;2023-04-01T04:04:37;11.60;99.90
4356;DHT22;64374;51.482;7.408;2023-04-01T04:07:08;11.40;99.90
4356;DHT22;64374;51.482;7.408;2023-04-01T04:09:59;11.40;99.90
4356;DHT22;64374;51.482;7.408;2023-04-01T04:12:29;11.20;99.90
4356;DHT22;64374;51.482;7.408;2023-04-01T04:14:59;11.10;99.90
4356;DHT22;64374;51.482;7.408;2023-04-01T04:17:28;11.30;99.90
4356;DHT22;64374;51.482;7.408;2023-04-01T04:19:57;11.10;99.90
4356;DHT22;64374;51.482;7.408;2023-04-01T04:22:25;11.00;99.90
4356;DHT22;64374;51.482;7.408;2023-04-01T04:24:54;11.10;99.90
4356;DHT22;64374;51.482;7.408;2023-04-01T04:27:22;11.20;99.90
4356;DHT22;64374;51.482;7.408;2023-04-01T04:30:08;11.20;99.90
4356;DHT22;64374;51.482;7.408;2023-04-01T04:32:37;11.10;99.90
4356;DHT22;64374;51.482;7.408;2023-04-01T04:35:29;11.20;99.90
4356;DHT22;64374;51.482;7.408;2023-04-01T04:37:58;11.20;99.90
4356;DHT22;64374;51.482;7.408;2023-04-01T04:40:26;11.40;99.90
4356;DHT22;64374;51.482;7.408;2023-04-01T04:42:56;11.40;99.90
4356;DHT22;64374;51.482;7.408;2023-04-01T04:45:26;11.40;99.90
4356;DHT22;64374;51.482;7.408;2023-04-01T04:47:56;11.40;99.90
4356;DHT22;64374;51.482;7.408;2023-04-01T04:50:25;11.20;99.90
4356;DHT22;64374;51.482;7.408;2023-04-01T04:52:54;11.30;99.90
4356;DHT22;64374;51.482;7.408;2023-04-01T04:55:23;11.30;99.90
4356;DHT22;64374;51.482;7.408;2023-04-01T04:58:13;11.10;99.90
4356;DHT22;64374;51.482;7.408;2023-04-01T05:00:44;11.40;99.90
4356;DHT22;64374;51.482;7.408;2023-04-01T05:03:20;11.40;99.90
4356;DHT22;64374;51.482;7.408;2023-04-01T05:05:50;11.40;99.90
4356;DHT22;64374;51.482;7.408;2023-04-01T05:08:20;11.50;99.90
4356;DHT22;64374;51.482;7.408;2023-04-01T05:10:49;11.70;99.90
4356;DHT22;64374;51.482;7.408;2023-04-01T05:13:22;11.50;99.90
4356;DHT22;64374;51.482;7.408;2023-04-01T05:16:20;11.60;99.90
4356;DHT22;64374;51.482;7.408;2023-04-01T05:18:49;11.40;99.90
4356;DHT22;64374;51.482;7.408;2023-04-01T05:21:18;11.50;99.90
4356;DHT22;64374;51.482;7.408;2023-04-01T05:23:46;11.50;99.90
4356;DHT22;64374;51.482;7.408;2023-04-01T05:26:15;11.60;99.90
4356;DHT22;64374;51.482;7.408;2023-04-01T05:28:44;11.40;99.90
4356;DHT22;64374;51.482;7.408;2023-04-01T05:31:12;11.30;99.90
4356;DHT22;64374;51.482;7.408;2023-04-01T05:33:45;11.50;99.90
4356;DHT22;64374;51.482;7.408;2023-04-01T05:36:17;11.50;99.90
4356;DHT22;64374;51.482;7.408;2023-04-01T05:38:45;11.40;99.90
4356;DHT22;64374;51.482;7.408;2023-04-01T05:41:16;11.50;99.90
4356;DHT22;64374;51.482;7.408;2023-04-01T05:43:45;11.40;99.90
4356;DHT22;64374;51.482;7.408;2023-04-01T05:46:32;11.30;99.90
4356;DHT22;64374;51.482;7.408;2023-04-01T05:49:12;11.60;99.90
4356;DHT22;64374;51.482;7.408;2023-04-01T05:51:41;11.50;99.90
4356;DHT22;64374;51.482;7.408;2023-04-01T05:54:12;11.60;99.90
4356;DHT22;64374;51.482;7.408;2023-04-01T05:56:41;11.80;99.90
4356;DHT22;64374;51.482;7.408;2023-04-01T05:59:16;11.80;99.90
4356;DHT22;64374;51.482;7.408;2023-04-01T06:01:44;11.90;99.90
4356;DHT22;64374;51.482;7.408;2023-04-01T06:04:16;11.70;99.90
4356;DHT22;64374;51.482;7.408;2023-04-01T06:06:45;12.00;99.90
4356;DHT22;64374;51.482;7.408;2023-04-01T06:09:16;12.00;99.90
4356;DHT22;64374;51.482;7.408;2023-04-01T06:12:01;12.00;99.90
4356;DHT22;64374;51.482;7.408;2023-04-01T06:15:00;11.80;99.90
4356;DHT22;64374;51.482;7.408;2023-04-01T06:17:46;11.90;99.90
4356;DHT22;64374;51.482;7.408;2023-04-01T06:20:25;11.90;99.90
4356;DHT22;64374;51.482;7.408;2023-04-01T06:23:13;11.70;99.90
4356;DHT22;64374;51.482;7.408;2023-04-01T06:26:03;11.80;99.90
4356;DHT22;64374;51.482;7.408;2023-04-01T06:29:05;11.90;99.90
4356;DHT22;64374;51.482;7.408;2023-04-01T06:32:01;11.90;99.90
4356;DHT22;64374;51.482;7.408;2023-04-01T06:35:04;11.70;99.90
4356;DHT22;64374;51.482;7.408;2023-04-01T06:41:27;12.10;99.90
4356;DHT22;64374;51.482;7.408;2023-04-01T06:44:14;11.80;99.90
4356;DHT22;64374;51.482;7.408;2023-04-01T06:47:34;12.10;99.90
4356;DHT22;64374;51.482;7.408;2023-04-01T06:50:33;12.20;99.90
4356;DHT22;64374;51.482;7.408;2023-04-01T06:53:31;12.30;99.90
4356;DHT22;64374;51.482;7.408;2023-04-01T06:56:26;12.40;99.90
4356;DHT22;64374;51.482;7.408;2023-04-01T06:59:01;12.30;99.90
4356;DHT22;64374;51.482;7.408;2023-04-01T07:01:33;12.00;99.90
4356;DHT22;64374;51.482;7.408;2023-04-01T07:04:09;12.00;99.90
4356;DHT22;64374;51.482;7.408;2023-04-01T07:06:43;11.90;99.90
4356;DHT22;64374;51.482;7.408;2023-04-01T07:09:19;11.90;99.90
4356;DHT22;64374;51.482;7.408;2023-04-01T07:12:13;11.80;99.90
4356;DHT22;64374;51.482;7.408;2023-04-01T07:15:15;11.70;99.90
4356;DHT22;64374;51.482;7.408;2023-04-01T07:17:47;12.00;99.90
4356;DHT22;64374;51.482;7.408;2023-04-01T07:20:22;12.00;99.90
4356;DHT22;64374;51.482;7.408;2023-04-01T07:22:53;11.90;99.90
4356;DHT22;64374;51.482;7.408;2023-04-01T07:25:52;11.90;99.90
4356;DHT22;64374;51.482;7.408;2023-04-01T07:28:30;11.90;99.90
4356;DHT22;64374;51.482;7.408;2023-04-01T07:31:20;11.70;99.90
4356;DHT22;64374;51.482;7.408;2023-04-01T07:33:57;11.80;99.90
4356;DHT22;64374;51.482;7.408;2023-04-01T07:36:35;11.90;99.90
4356;DHT22;64374;51.482;7.408;2023-04-01T07:39:15;12.00;99.90
4356;DHT22;64374;51.482;7.408;2023-04-01T07:42:07;11.80;99.90
4356;DHT22;64374;51.482;7.408;2023-04-01T07:44:42;11.90;99.90
4356;DHT22;64374;51.482;7.408;2023-04-01T07:47:45;12.20;99.90
4356;DHT22;64374;51.482;7.408;2023-04-01T07:50:29;12.00;99.90
4356;DHT22;64374;51.482;7.408;2023-04-01T07:53:07;11.80;99.90
4356;DHT22;64374;51.482;7.408;2023-04-01T07:55:43;11.70;99.90
4356;DHT22;64374;51.482;7.408;2023-04-01T07:58:22;11.80;99.90
4356;DHT22;64374;51.482;7.408;2023-04-01T08:00:58;12.00;99.90
4356;DHT22;64374;51.482;7.408;2023-04-01T08:03:47;12.00;99.90
4356;DHT22;64374;51.482;7.408;2023-04-01T08:06:24;12.00;99.90
4356;DHT22;64374;51.482;7.408;2023-04-01T08:09:02;12.10;99.90
4356;DHT22;64374;51.482;7.408;2023-04-01T08:12:02;11.90;99.90
4356;DHT22;64374;51.482;7.408;2023-04-01T08:14:59;11.90;99.90
4356;DHT22;64374;51.482;7.408;2023-04-01T08:18:01;12.10;99.90
4356;DHT22;64374;51.482;7.408;2023-04-01T08:20:37;12.00;99.90
4356;DHT22;64374;51.482;7.408;2023-04-01T08:23:12;11.80;99.90
4356;DHT22;64374;51.482;7.408;2023-04-01T08:25:48;11.60;99.90
4356;DHT22;64374;51.482;7.408;2023-04-01T08:28:24;11.70;99.90
4356;DHT22;64374;51.482;7.408;2023-04-01T08:31:04;11.70;99.90
4356;DHT22;64374;51.482;7.408;2023-04-01T08:33:34;11.80;99.90
4356;DHT22;64374;51.482;7.408;2023-04-01T08:36:12;11.70;99.90
4356;DHT22;64374;51.482;7.408;2023-04-01T08:38:49;11.50;99.90
4356;DHT22;64374;51.482;7.408;2023-04-01T08:41:51;11.70;99.90
4356;DHT22;64374;51.482;7.408;2023-04-01T08:45:03;11.80;99.90
4356;DHT22;64374;51.482;7.408;2023-04-01T08:47:54;11.80;99.90
4356;DHT22;64374;51.482;7.408;2023-04-01T08:51:02;11.70;99.90
4356;DHT22;64374;51.482;7.408;2023-04-01T08:56:46;11.60;99.90
4356;DHT22;64374;51.482;7.408;2023-04-01T08:59:30;11.30;99.90
4356;DHT22;64374;51.482;7.408;2023-04-01T09:02:53;11.50;99.90
4356;DHT22;64374;51.482;7.408;2023-04-01T09:08:37;11.50;99.90
4356;DHT22;64374;51.482;7.408;2023-04-01T09:11:15;11.40;99.90
4356;DHT22;64374;51.482;7.408;2023-04-01T09:17:43;11.60;99.90
4356;DHT22;64374;51.482;7.408;2023-04-01T09:20:26;11.40;99.90
4356;DHT22;64374;51.482;7.408;2023-04-01T09:23:15;11.30;99.90
4356;DHT22;64374;51.482;7.408;2023-04-01T09:25:57;11.20;99.90
4356;DHT22;64374;51.482;7.408;2023-04-01T09:28:37;11.50;99.90
4356;DHT22;64374;51.482;7.408;2023-04-01T09:31:25;11.40;99.90
4356;DHT22;64374;51.482;7.408;2023-04-01T09:34:25;11.30;99.90
4356;DHT22;64374;51.482;7.408;2023-04-01T09:37:17;11.40;99.90
4356;DHT22;64374;51.482;7.408;2023-04-01T09:40:09;11.50;99.90
4356;DHT22;64374;51.482;7.408;2023-04-01T09:43:02;11.70;99.90
4356;DHT22;64374;51.482;7.408;2023-04-01T09:45:48;11.70;99.90
4356;DHT22;64374;51.482;7.408;2023-04-01T09:48:35;11.90;99.90
4356;DHT22;64374;51.482;7.408;2023-04-01T09:51:19;11.50;99.90
4356;DHT22;64374;51.482;7.408;2023-04-01T09:54:01;11.80;99.90
4356;DHT22;64374;51.482;7.408;2023-04-01T09:59:57;11.70;99.90
4356;DHT22;64374;51.482;7.408;2023-04-01T10:03:12;11.70;99.90
4356;DHT22;64374;51.482;7.408;2023-04-01T10:06:18;11.80;99.90
4356;DHT22;64374;51.482;7.408;2023-04-01T10:15:34;11.70;99.90
4356;DHT22;64374;51.482;7.408;2023-04-01T10:21:25;11.80;99.90
4356;DHT22;64374;51.482;7.408;2023-04-01T10:24:33;11.70;99.90
4356;DHT22;64374;51.482;7.408;2023-04-01T10:27:37;11.80;99.90
4356;DHT22;64374;51.482;7.408;2023-04-01T10:33:51;12.00;99.90
4356;DHT22;64374;51.482;7.408;2023-04-01T10:36:44;12.00;99.90
4356;DHT22;64374;51.482;7.408;2023-04-01T10:39:55;12.10;99.90
4356;DHT22;64374;51.482;7.408;2023-04-01T10:43:13;12.20;99.90
4356;DHT22;64374;51.482;7.408;2023-04-01T10:46:22;12.10;99.90
4356;DHT22;64374;51.482;7.408;2023-04-01T10:49:22;11.90;99.90
4356;DHT22;64374;51.482;7.408;2023-04-01T10:52:29;12.00;99.90
4356;DHT22;64374;51.482;7.408;2023-04-01T10:55:44;11.80;99.90
4356;DHT22;64374;51.482;7.408;2023-04-01T10:59:02;11.70;99.90
4356;DHT22;64374;51.482;7.408;2023-04-01T11:08:58;12.10;99.90
4356;DHT22;64374;51.482;7.408;2023-04-01T11:11:54;12.00;99.90
4356;DHT22;64374;51.482;7.408;2023-04-01T11:15:06;12.10;99.90
4356;DHT22;64374;51.482;7.408;2023-04-01T11:18:09;11.80;99.90
4356;DHT22;64374;51.482;7.408;2023-04-01T11:24:18;11.90;99.90
4356;DHT22;64374;51.482;7.408;2023-04-01T11:27:10;11.80;99.90
4356;DHT22;64374;51.482;7.408;2023-04-01T11:30:18;11.80;99.90
4356;DHT22;64374;51.482;7.408;2023-04-01T11:32:54;12.00;99.90
4356;DHT22;64374;51.482;7.408;2023-04-01T11:35:36;11.90;99.90
4356;DHT22;64374;51.482;7.408;2023-04-01T11:38:24;12.20;99.90
4356;DHT22;64374;51.482;7.408;2023-04-01T11:41:07;11.80;99.90
4356;DHT22;64374;51.482;7.408;2023-04-01T11:44:10;11.60;99.90
4356;DHT22;64374;51.482;7.408;2023-04-01T11:46:56;11.60;99.90
4356;DHT22;64374;51.482;7.408;2023-04-01T11:49:47;11.70;99.90
4356;DHT22;64374;51.482;7.408;2023-04-01T11:52:38;11.80;99.90
4356;DHT22;64374;51.482;7.408;2023-04-01T11:55:24;11.80;99.90
4356;DHT22;64374;51.482;7.408;2023-04-01T12:01:27;12.10;99.90
4356;DHT22;64374;51.482;7.408;2023-04-01T12:04:26;11.80;99.90
4356;DHT22;64374;51.482;7.408;2023-04-01T12:07:05;11.90;99.90
4356;DHT22;64374;51.482;7.408;2023-04-01T12:09:41;11.90;99.90
4356;DHT22;64374;51.482;7.408;2023-04-01T12:12:17;11.80;99.90
4356;DHT22;64374;51.482;7.408;2023-04-01T12:15:01;11.70;99.90
4356;DHT22;64374;51.482;7.408;2023-04-01T12:17:36;11.70;99.90
4356;DHT22;64374;51.482;7.408;2023-04-01T12:20:25;11.80;99.90
4356;DHT22;64374;51.482;7.408;2023-04-01T12:23:07;11.80;99.90
4356;DHT22;64374;51.482;7.408;2023-04-01T12:26:00;11.90;99.90
4356;DHT22;64374;51.482;7.408;2023-04-01T12:28:41;12.10;99.90
4356;DHT22;64374;51.482;7.408;2023-04-01T12:31:26;12.00;99.90
4356;DHT22;64374;51.482;7.408;2023-04-01T12:37:27;12.10;99.90
4356;DHT22;64374;51.482;7.408;2023-04-01T12:40:20;11.80;99.90
4356;DHT22;64374;51.482;7.408;2023-04-01T12:43:33;11.90;99.90
4356;DHT22;64374;51.482;7.408;2023-04-01T12:46:11;11.90;99.90
4356;DHT22;64374;51.482;7.408;2023-04-01T12:52:07;11.70;99.90
4356;DHT22;64374;51.482;7.408;2023-04-01T12:55:12;11.60;99.90
4356;DHT22;64374;51.482;7.408;2023-04-01T12:58:11;11.60;99.90
4356;DHT22;64374;51.482;7.408;2023-04-01T13:01:00;11.80;99.90
4356;DHT22;64374;51.482;7.408;2023-04-01T13:03:55;12.00;99.90
4356;DHT22;64374;51.482;7.408;2023-04-01T13:06:48;12.10;99.90
4356;DHT22;64374;51.482;7.408;2023-04-01T13:09:55;12.40;99.90
4356;DHT22;64374;51.482;7.408;2023-04-01T13:12:46;12.20;99.90
4356;DHT22;64374;51.482;7.408;2023-04-01T13:15:32;12.30;99.90
4356;DHT22;64374;51.482;7.408;2023-04-01T13:18:14;12.40;99.90
4356;DHT22;64374;51.482;7.408;2023-04-01T13:20:53;12.60;99.90
4356;DHT22;64374;51.482;7.408;2023-04-01T13:23:34;12.40;99.90
4356;DHT22;64374;51.482;7.408;2023-04-01T13:26:11;12.50;99.90
4356;DHT22;64374;51.482;7.408;2023-04-01T13:28:47;12.20;99.90
4356;DHT22;64374;51.482;7.408;2023-04-01T13:34:32;12.10;99.90
4356;DHT22;64374;51.482;7.408;2023-04-01T13:37:14;12.00;99.90
4356;DHT22;64374;51.482;7.408;2023-04-01T13:39:56;12.20;99.90
4356;DHT22;64374;51.482;7.408;2023-04-01T13:42:37;12.20;99.90
4356;DHT22;64374;51.482;7.408;2023-04-01T13:45:15;12.20;99.90
4356;DHT22;64374;51.482;7.408;2023-04-01T13:54:56;12.00;99.90
4356;DHT22;64374;51.482;7.408;2023-04-01T13:57:50;11.90;99.90
4356;DHT22;64374;51.482;7.408;2023-04-01T14:00:38;12.00;99.90
4356;DHT22;64374;51.482;7.408;2023-04-01T14:03:26;12.10;99.90
4356;DHT22;64374;51.482;7.408;2023-04-01T14:06:19;12.20;99.90
4356;DHT22;64374;51.482;7.408;2023-04-01T14:11:55;12.30;99.90
4356;DHT22;64374;51.482;7.408;2023-04-01T14:14:36;12.10;99.90
4356;DHT22;64374;51.482;7.408;2023-04-01T14:17:20;12.10;99.90
4356;DHT22;64374;51.482;7.408;2023-04-01T14:20:06;12.10;99.90
4356;DHT22;64374;51.482;7.408;2023-04-01T14:22:48;12.10;99.90
4356;DHT22;64374;51.482;7.408;2023-04-01T14:25:34;12.40;99.90
4356;DHT22;64374;51.482;7.408;2023-04-01T14:28:15;12.50;99.90
4356;DHT22;64374;51.482;7.408;2023-04-01T14:30:59;12.50;99.90
4356;DHT22;64374;51.482;7.408;2023-04-01T14:33:38;12.50;99.90
4356;DHT22;64374;51.482;7.408;2023-04-01T14:36:29;12.50;99.90
4356;DHT22;64374;51.482;7.408;2023-04-01T14:39:14;12.50;99.90
4356;DHT22;64374;51.482;7.408;2023-04-01T14:41:48;12.50;99.90
4356;DHT22;64374;51.482;7.408;2023-04-01T14:44:40;12.20;99.90
4356;DHT22;64374;51.482;7.408;2023-04-01T14:47:41;12.10;99.90
4356;DHT22;64374;51.482;7.408;2023-04-01T14:50:14;11.90;99.90
4356;DHT22;64374;51.482;7.408;2023-04-01T14:52:49;12.10;99.90
4356;DHT22;64374;51.482;7.408;2023-04-01T14:55:28;12.20;99.90
4356;DHT22;64374;51.482;7.408;2023-04-01T14:58:10;12.10;99.90
4356;DHT22;64374;51.482;7.408;2023-04-01T15:00:48;12.40;99.90
4356;DHT22;64374;51.482;7.408;2023-04-01T15:03:24;12.40;99.90
4356;DHT22;64374;51.482;7.408;2023-04-01T15:05:59;12.30;99.90
4356;DHT22;64374;51.482;7.408;2023-04-01T15:08:29;12.10;99.90
4356;DHT22;64374;51.482;7.408;2023-04-01T15:11:25;12.00;99.90
4356;DHT22;64374;51.482;7.408;2023-04-01T15:14:26;11.90;99.90
4356;DHT22;64374;51.482;7.408;2023-04-01T15:17:14;12.00;99.90
4356;DHT22;64374;51.482;7.408;2023-04-01T15:20:00;11.90;99.90
4356;DHT22;64374;51.482;7.408;2023-04-01T15:22:54;12.10;99.90
4356;DHT22;64374;51.482;7.408;2023-04-01T15:25:37;12.30;99.90
4356;DHT22;64374;51.482;7.408;2023-04-01T15:28:20;12.40;99.90
4356;DHT22;64374;51.482;7.408;2023-04-01T15:31:00;12.30;99.90
4356;DHT22;64374;51.482;7.408;2023-04-01T15:33:39;12.30;99.90
4356;DHT22;64374;51.482;7.408;2023-04-01T15:36:20;12.40;99.90
4356;DHT22;64374;51.482;7.408;2023-04-01T15:38:52;12.50;99.90
4356;DHT22;64374;51.482;7.408;2023-04-01T15:41:27;12.40;99.90
4356;DHT22;64374;51.482;7.408;2023-04-01T15:43:58;12.50;99.90
4356;DHT22;64374;51.482;7.408;2023-04-01T15:46:36;12.40;99.90
4356;DHT22;64374;51.482;7.408;2023-04-01T15:49:22;12.40;99.90
4356;DHT22;64374;51.482;7.408;2023-04-01T15:52:07;12.40;99.90
4356;DHT22;64374;51.482;7.408;2023-04-01T15:54:57;12.50;99.90
4356;DHT22;64374;51.482;7.408;2023-04-01T15:57:36;12.50;99.90
4356;DHT22;64374;51.482;7.408;2023-04-01T16:00:29;12.40;99.90
4356;DHT22;64374;51.482;7.408;2023-04-01T16:03:17;12.40;99.90
4356;DHT22;64374;51.482;7.408;2023-04-01T16:06:01;12.40;99.90
4356;DHT22;64374;51.482;7.408;2023-04-01T16:08:48;12.40;99.90
4356;DHT22;64374;51.482;7.408;2023-04-01T16:11:26;12.40;99.90
4356;DHT22;64374;51.482;7.408;2023-04-01T16:14:07;12.50;99.90
4356;DHT22;64374;51.482;7.408;2023-04-01T16:16:48;12.50;99.90
4356;DHT22;64374;51.482;7.408;2023-04-01T16:19:37;12.60;99.90
4356;DHT22;64374;51.482;7.408;2023-04-01T16:22:31;12.40;99.90
4356;DHT22;64374;51.482;7.408;2023-04-01T16:25:17;12.60;99.90
4356;DHT22;64374;51.482;7.408;2023-04-01T16:27:54;12.50;99.90
4356;DHT22;64374;51.482;7.408;2023-04-01T16:30:35;12.50;99.90
4356;DHT22;64374;51.482;7.408;2023-04-01T16:33:11;12.30;99.90
4356;DHT22;64374;51.482;7.408;2023-04-01T16:35:44;12.10;99.90
4356;DHT22;64374;51.482;7.408;2023-04-01T16:38:22;12.10;99.90
4356;DHT22;64374;51.482;7.408;2023-04-01T16:41:00;12.10;99.90
4356;DHT22;64374;51.482;7.408;2023-04-01T16:43:39;12.20;99.90
4356;DHT22;64374;51.482;7.408;2023-04-01T16:46:35;12.10;99.90
4356;DHT22;64374;51.482;7.408;2023-04-01T16:49:24;12.30;99.90
4356;DHT22;64374;51.482;7.408;2023-04-01T16:51:57;12.50;99.90
4356;DHT22;64374;51.482;7.408;2023-04-01T16:54:35;12.70;99.90
4356;DHT22;64374;51.482;7.408;2023-04-01T16:57:15;12.70;99.90
4356;DHT22;64374;51.482;7.408;2023-04-01T16:59:55;12.70;99.90
4356;DHT22;64374;51.482;7.408;2023-04-01T17:02:33;12.50;99.90
4356;DHT22;64374;51.482;7.408;2023-04-01T17:05:05;12.60;99.90
4356;DHT22;64374;51.482;7.408;2023-04-01T17:07:41;12.50;99.90
4356;DHT22;64374;51.482;7.408;2023-04-01T17:10:32;12.50;99.90
4356;DHT22;64374;51.482;7.408;2023-04-01T17:16:23;12.60;99.90
4356;DHT22;64374;51.482;7.408;2023-04-01T17:19:02;12.70;99.90
4356;DHT22;64374;51.482;7.408;2023-04-01T17:21:47;12.80;99.90
4356;DHT22;64374;51.482;7.408;2023-04-01T17:24:27;12.70;99.90
4356;DHT22;64374;51.482;7.408;2023-04-01T17:27:13;12.80;99.90
4356;DHT22;64374;51.482;7.408;2023-04-01T17:30:04;12.90;99.90
4356;DHT22;64374;51.482;7.408;2023-04-01T17:32:46;12.80;99.90
4356;DHT22;64374;51.482;7.408;2023-04-01T17:35:23;12.70;99.90
4356;DHT22;64374;51.482;7.408;2023-04-01T17:38:03;12.70;99.90
4356;DHT22;64374;51.482;7.408;2023-04-01T17:40:44;12.60;99.90
4356;DHT22;64374;51.482;7.408;2023-04-01T17:43:26;12.60;99.90
4356;DHT22;64374;51.482;7.408;2023-04-01T17:46:04;12.60;99.90
4356;DHT22;64374;51.482;7.408;2023-04-01T17:48:43;12.80;99.90
4356;DHT22;64374;51.482;7.408;2023-04-01T17:51:23;12.70;99.90
4356;DHT22;64374;51.482;7.408;2023-04-01T17:54:00;12.80;99.90
4356;DHT22;64374;51.482;7.408;2023-04-01T17:56:45;12.90;99.90
4356;DHT22;64374;51.482;7.408;2023-04-01T17:59:24;13.00;99.90
4356;DHT22;64374;51.482;7.408;2023-04-01T18:02:02;13.10;99.90
4356;DHT22;64374;51.482;7.408;2023-04-01T18:04:56;13.20;99.90
4356;DHT22;64374;51.482;7.408;2023-04-01T18:10:28;13.00;99.90
4356;DHT22;64374;51.482;7.408;2023-04-01T18:13:30;12.70;99.90
4356;DHT22;64374;51.482;7.408;2023-04-01T18:16:12;12.80;99.90
4356;DHT22;64374;51.482;7.408;2023-04-01T18:18:50;12.70;99.90
4356;DHT22;64374;51.482;7.408;2023-04-01T18:21:31;12.70;99.90